createdAt,value
2017-10-21T00:00:04.810Z,66.06
2017-10-21T00:02:31.264Z,66.04
2017-10-21T00:04:57.592Z,66.08
2017-10-21T00:07:23.769Z,66.03
2017-10-21T00:09:49.964Z,66.04
2017-10-21T00:12:16.217Z,66.05
2017-10-21T00:14:42.401Z,66.07
2017-10-21T00:17:08.922Z,66.05
2017-10-21T00:19:35.259Z,66.07
2017-10-21T00:22:01.456Z,66.09
2017-10-21T00:24:27.933Z,66.09
2017-10-21T00:26:54.181Z,66.08
2017-10-21T00:29:20.377Z,66.06
2017-10-21T00:31:46.561Z,66.10
2017-10-21T00:34:12.798Z,66.11
2017-10-21T00:36:38.998Z,66.12
2017-10-21T00:39:05.172Z,66.08
2017-10-21T00:41:31.714Z,66.04
2017-10-21T00:43:58.251Z,66.02
2017-10-21T00:46:24.448Z,66.01
2017-10-21T00:48:51.163Z,66.03
2017-10-21T00:51:17.649Z,66.06
2017-10-21T00:53:43.837Z,66.07
2017-10-21T00:56:10.208Z,66.05
2017-10-21T00:58:36.412Z,66.05
2017-10-21T01:01:02.795Z,66.06
2017-10-21T01:03:29.147Z,66.06
2017-10-21T01:05:55.329Z,66.05
2017-10-21T01:08:21.527Z,66.06
2017-10-21T01:10:48.090Z,66.02
2017-10-21T01:13:14.349Z,66.03
2017-10-21T01:15:40.560Z,66.07
2017-10-21T01:18:06.793Z,66.07
2017-10-21T01:20:33.001Z,66.06
2017-10-21T01:22:59.219Z,66.05
2017-10-21T01:25:25.467Z,66.03
2017-10-21T01:27:51.672Z,66.00
2017-10-21T01:30:18.222Z,66.03
2017-10-21T01:32:44.478Z,66.09
2017-10-21T01:35:11.039Z,66.14
2017-10-21T01:37:37.271Z,66.14
2017-10-21T01:40:03.562Z,66.11
2017-10-21T01:42:29.813Z,66.11
2017-10-21T01:44:56.066Z,66.11
2017-10-21T01:47:22.398Z,66.10
2017-10-21T01:49:48.613Z,66.09
2017-10-21T01:52:14.874Z,66.09
2017-10-21T01:54:41.301Z,66.06
2017-10-21T01:57:07.856Z,66.04
2017-10-21T01:59:34.394Z,66.07
2017-10-21T02:02:00.902Z,66.07
2017-10-21T02:04:27.104Z,66.07
2017-10-21T02:06:53.694Z,66.05
2017-10-21T02:09:20.228Z,66.03
2017-10-21T02:11:46.543Z,66.01
2017-10-21T02:14:12.742Z,66.01
2017-10-21T02:16:38.942Z,66.03
2017-10-21T02:19:05.605Z,66.03
2017-10-21T02:21:31.822Z,66.01
2017-10-21T02:24:04.897Z,65.97
2017-10-21T02:26:31.400Z,66.00
2017-10-21T02:28:57.670Z,66.03
2017-10-21T02:31:23.891Z,65.99
2017-10-21T02:33:50.112Z,65.98
2017-10-21T02:36:16.362Z,65.95
2017-10-21T02:38:42.574Z,65.97
2017-10-21T02:41:09.178Z,65.98
2017-10-21T02:43:35.403Z,65.99
2017-10-21T02:46:01.844Z,66.00
2017-10-21T02:48:28.094Z,66.03
2017-10-21T02:50:54.601Z,66.02
2017-10-21T02:53:21.136Z,66.04
2017-10-21T02:55:47.489Z,66.01
2017-10-21T02:58:13.706Z,66.01
2017-10-21T03:00:40.235Z,65.97
2017-10-21T03:03:06.826Z,65.96
2017-10-21T03:05:33.058Z,65.94
2017-10-21T03:07:59.302Z,65.98
2017-10-21T03:10:25.646Z,66.02
2017-10-21T03:12:51.840Z,66.03
2017-10-21T03:15:18.318Z,66.04
2017-10-21T03:17:44.852Z,66.05
2017-10-21T03:20:11.050Z,66.01
2017-10-21T03:22:37.272Z,66.06
2017-10-21T03:25:03.485Z,66.02
2017-10-21T03:27:29.754Z,65.97
2017-10-21T03:29:55.950Z,65.96
2017-10-21T03:32:22.430Z,66.01
2017-10-21T03:34:48.761Z,65.98
2017-10-21T03:37:14.983Z,65.95
2017-10-21T03:39:41.181Z,65.90
2017-10-21T03:42:07.802Z,66.00
2017-10-21T03:44:33.996Z,65.98
2017-10-21T03:47:00.510Z,65.98
2017-10-21T03:49:26.761Z,66.02
2017-10-21T03:51:52.937Z,65.95
2017-10-21T03:54:19.134Z,65.91
2017-10-21T03:56:45.369Z,65.96
2017-10-21T03:59:11.565Z,65.94
2017-10-21T04:01:37.797Z,65.94
2017-10-21T04:04:04.329Z,65.95
2017-10-21T04:06:30.748Z,65.96
2017-10-21T04:08:57.187Z,65.96
2017-10-21T04:11:23.766Z,65.96
2017-10-21T04:13:49.974Z,65.97
2017-10-21T04:16:16.166Z,65.98
2017-10-21T04:18:42.423Z,65.96
2017-10-21T04:21:08.630Z,65.98
2017-10-21T04:23:35.170Z,66.00
2017-10-21T04:26:01.810Z,66.02
2017-10-21T04:28:28.006Z,66.00
2017-10-21T04:30:54.194Z,66.01
2017-10-21T04:33:21.079Z,66.03
2017-10-21T04:35:47.279Z,66.00
2017-10-21T04:38:13.472Z,65.97
2017-10-21T04:40:39.793Z,65.98
2017-10-21T04:43:06.222Z,65.96
2017-10-21T04:45:32.420Z,65.98
2017-10-21T04:47:58.995Z,65.99
2017-10-21T04:50:25.179Z,66.00
2017-10-21T04:52:51.646Z,66.00
2017-10-21T04:55:17.982Z,66.00
2017-10-21T04:57:44.216Z,65.97
2017-10-21T05:00:10.407Z,65.99
2017-10-21T05:02:37.114Z,66.02
2017-10-21T05:05:03.517Z,66.01
2017-10-21T05:07:29.701Z,66.03
2017-10-21T05:09:56.374Z,65.95
2017-10-21T05:12:22.902Z,66.02
2017-10-21T05:14:49.438Z,66.04
2017-10-21T05:17:16.123Z,66.03
2017-10-21T05:19:42.362Z,66.03
2017-10-21T05:22:08.834Z,66.05
2017-10-21T05:24:35.079Z,66.04
2017-10-21T05:27:01.267Z,66.05
2017-10-21T05:29:27.730Z,66.10
2017-10-21T05:31:54.053Z,66.16
2017-10-21T05:34:20.233Z,66.19
2017-10-21T05:36:46.423Z,66.15
2017-10-21T05:39:12.758Z,66.12
2017-10-21T05:41:39.273Z,66.12
2017-10-21T05:44:05.476Z,66.11
2017-10-21T05:46:31.827Z,66.15
2017-10-21T05:48:58.021Z,66.12
2017-10-21T05:51:24.498Z,66.12
2017-10-21T05:53:50.763Z,66.07
2017-10-21T05:56:16.940Z,66.06
2017-10-21T05:58:43.183Z,66.07
2017-10-21T06:01:09.480Z,66.06
2017-10-21T06:03:35.714Z,66.05
2017-10-21T06:06:02.227Z,66.02
2017-10-21T06:08:28.533Z,66.02
2017-10-21T06:10:54.725Z,65.96
2017-10-21T06:13:20.978Z,65.93
2017-10-21T06:15:47.264Z,65.97
2017-10-21T06:18:13.498Z,65.96
2017-10-21T06:20:39.716Z,65.97
2017-10-21T06:23:06.199Z,65.96
2017-10-21T06:25:32.391Z,65.93
2017-10-21T06:27:58.584Z,65.98
2017-10-21T06:30:24.879Z,65.92
2017-10-21T06:32:51.336Z,65.93
2017-10-21T06:35:17.531Z,65.92
2017-10-21T06:37:44.772Z,65.93
2017-10-21T06:40:11.019Z,65.90
2017-10-21T06:42:37.235Z,65.88
2017-10-21T06:45:03.772Z,65.88
2017-10-21T06:47:30.350Z,65.89
2017-10-21T06:49:56.544Z,65.85
2017-10-21T06:52:23.065Z,65.86
2017-10-21T06:54:49.755Z,65.84
2017-10-21T06:57:15.970Z,65.88
2017-10-21T06:59:42.384Z,65.83
2017-10-21T07:02:08.611Z,65.80
2017-10-21T07:04:34.929Z,65.83
2017-10-21T07:07:01.112Z,65.82
2017-10-21T07:09:27.496Z,65.81
2017-10-21T07:11:53.778Z,65.79
2017-10-21T07:14:20.015Z,65.79
2017-10-21T07:16:46.206Z,65.78
2017-10-21T07:19:13.682Z,65.73
2017-10-21T07:21:39.865Z,65.74
2017-10-21T07:24:07.309Z,65.73
2017-10-21T07:26:33.535Z,65.69
2017-10-21T07:28:59.727Z,65.64
2017-10-21T07:31:25.918Z,65.65
2017-10-21T07:33:52.262Z,65.67
2017-10-21T07:36:18.448Z,65.66
2017-10-21T07:38:44.649Z,65.65
2017-10-21T07:41:11.500Z,65.61
2017-10-21T07:43:37.681Z,65.61
2017-10-21T07:46:03.881Z,65.62
2017-10-21T07:48:30.126Z,65.64
2017-10-21T07:50:56.304Z,65.60
2017-10-21T07:53:22.490Z,65.57
2017-10-21T07:55:48.708Z,65.52
2017-10-21T07:58:15.035Z,65.45
2017-10-21T08:00:41.237Z,65.43
2017-10-21T08:03:07.443Z,65.38
2017-10-21T08:05:33.705Z,65.33
2017-10-21T08:07:59.897Z,65.24
2017-10-21T08:10:26.334Z,65.18
2017-10-21T08:12:52.554Z,65.08
2017-10-21T08:15:18.727Z,65.01
2017-10-21T08:17:44.951Z,65.02
2017-10-21T08:20:11.139Z,65.04
2017-10-21T08:22:37.398Z,64.96
2017-10-21T08:25:03.819Z,64.94
2017-10-21T08:27:30.010Z,64.89
2017-10-21T08:29:56.511Z,64.84
2017-10-21T08:32:22.694Z,64.76
2017-10-21T08:34:49.158Z,64.68
2017-10-21T08:37:15.485Z,64.62
2017-10-21T08:39:41.742Z,64.55
2017-10-21T08:42:07.972Z,64.44
2017-10-21T08:44:34.632Z,64.33
2017-10-21T08:47:00.827Z,64.23
2017-10-21T08:49:27.006Z,64.16
2017-10-21T08:51:53.250Z,64.17
2017-10-21T08:54:19.693Z,64.10
2017-10-21T08:56:45.897Z,64.06
2017-10-21T08:59:12.382Z,64.01
2017-10-21T09:01:38.619Z,63.98
2017-10-21T09:04:04.858Z,63.99
2017-10-21T09:06:31.301Z,63.97
2017-10-21T09:08:57.493Z,63.90
2017-10-21T09:11:24.121Z,63.91
2017-10-21T09:13:50.304Z,63.96
2017-10-21T09:16:16.586Z,63.98
2017-10-21T09:18:42.841Z,63.99
2017-10-21T09:21:09.047Z,63.97
2017-10-21T09:23:35.277Z,63.95
2017-10-21T09:26:01.585Z,63.98
2017-10-21T09:28:27.772Z,63.99
2017-10-21T09:30:53.970Z,63.97
2017-10-21T09:33:20.211Z,63.98
2017-10-21T09:35:46.397Z,63.99
2017-10-21T09:38:12.577Z,64.01
2017-10-21T09:40:38.922Z,64.01
2017-10-21T09:43:05.116Z,64.03
2017-10-21T09:45:31.302Z,64.04
2017-10-21T09:47:57.984Z,64.06
2017-10-21T09:50:24.214Z,64.09
2017-10-21T09:52:50.413Z,64.11
2017-10-21T09:55:16.695Z,64.17
2017-10-21T09:57:43.109Z,64.22
2017-10-21T10:00:09.549Z,64.25
2017-10-21T10:02:35.896Z,64.29
2017-10-21T10:05:02.357Z,64.30
2017-10-21T10:07:28.568Z,64.32
2017-10-21T10:09:54.907Z,64.34
2017-10-21T10:12:21.103Z,64.33
2017-10-21T10:14:47.300Z,64.32
2017-10-21T10:17:13.674Z,64.29
2017-10-21T10:19:39.887Z,64.20
2017-10-21T10:22:06.100Z,64.12
2017-10-21T10:24:32.447Z,64.05
2017-10-21T10:26:58.670Z,63.91
2017-10-21T10:29:25.099Z,63.78
2017-10-21T10:31:51.319Z,63.69
2017-10-21T10:34:17.756Z,63.57
2017-10-21T10:36:43.957Z,63.44
2017-10-21T10:39:10.164Z,63.27
2017-10-21T10:41:36.401Z,63.09
2017-10-21T10:44:03.243Z,62.96
2017-10-21T10:46:29.492Z,62.92
2017-10-21T10:48:55.700Z,62.95
2017-10-21T10:51:22.229Z,62.96
2017-10-21T10:53:48.416Z,62.97
2017-10-21T10:56:14.850Z,63.05
2017-10-21T10:58:41.886Z,63.12
2017-10-21T11:01:08.309Z,63.16
2017-10-21T11:03:34.522Z,63.22
2017-10-21T11:06:00.771Z,63.26
2017-10-21T11:08:26.980Z,63.23
2017-10-21T11:10:53.164Z,63.15
2017-10-21T11:13:19.382Z,63.03
2017-10-21T11:15:45.561Z,62.95
2017-10-21T11:18:12.378Z,62.93
2017-10-21T11:20:38.554Z,62.94
2017-10-21T11:23:04.758Z,62.93
2017-10-21T11:25:31.315Z,62.91
2017-10-21T11:27:57.499Z,62.88
2017-10-21T11:30:23.693Z,62.81
2017-10-21T11:32:49.931Z,62.77
2017-10-21T11:35:16.269Z,62.71
2017-10-21T11:37:42.475Z,62.70
2017-10-21T11:40:08.951Z,62.70
2017-10-21T11:42:35.159Z,62.75
2017-10-21T11:45:01.337Z,62.86
2017-10-21T11:47:27.806Z,62.95
2017-10-21T11:49:53.978Z,63.02
2017-10-21T11:52:20.234Z,63.07
2017-10-21T11:54:46.573Z,63.19
2017-10-21T11:57:13.050Z,63.28
2017-10-21T11:59:39.586Z,63.30
2017-10-21T12:02:05.812Z,63.29
2017-10-21T12:04:31.991Z,63.27
2017-10-21T12:06:58.373Z,63.21
2017-10-21T12:09:24.553Z,63.12
2017-10-21T12:11:50.755Z,63.01
2017-10-21T12:14:17.014Z,62.97
2017-10-21T12:16:43.439Z,62.96
2017-10-21T12:19:09.646Z,62.96
2017-10-21T12:21:35.891Z,62.99
2017-10-21T12:24:02.097Z,62.96
2017-10-21T12:26:28.525Z,62.94
2017-10-21T12:28:54.756Z,62.91
2017-10-21T12:31:20.941Z,62.90
2017-10-21T12:33:47.142Z,62.93
2017-10-21T12:36:13.353Z,62.98
2017-10-21T12:38:39.698Z,63.02
2017-10-21T12:41:05.902Z,63.07
2017-10-21T12:43:38.244Z,63.15
2017-10-21T12:46:04.503Z,63.25
2017-10-21T12:48:30.695Z,63.33
2017-10-21T12:50:56.919Z,63.41
2017-10-21T12:53:23.225Z,63.46
2017-10-21T12:55:49.414Z,63.46
2017-10-21T12:58:15.612Z,63.45
2017-10-21T13:00:42.013Z,63.42
2017-10-21T13:03:08.202Z,63.38
2017-10-21T13:05:34.390Z,63.31
2017-10-21T13:08:00.650Z,63.24
2017-10-21T13:10:26.843Z,63.26
2017-10-21T13:12:53.280Z,63.31
2017-10-21T13:15:19.861Z,63.35
2017-10-21T13:17:46.067Z,63.42
2017-10-21T13:20:12.263Z,63.47
2017-10-21T13:22:38.512Z,63.52
2017-10-21T13:25:04.702Z,63.55
2017-10-21T13:27:31.176Z,63.55
2017-10-21T13:29:57.414Z,63.59
2017-10-21T13:32:23.598Z,63.64
2017-10-21T13:34:49.835Z,63.69
2017-10-21T13:37:16.188Z,63.73
2017-10-21T13:39:42.720Z,63.78
2017-10-21T13:42:08.913Z,63.83
2017-10-21T13:44:35.126Z,63.87
2017-10-21T13:47:01.326Z,63.93
2017-10-21T13:49:27.706Z,63.93
2017-10-21T13:51:54.274Z,63.92
2017-10-21T13:54:20.474Z,63.90
2017-10-21T13:56:47.193Z,63.89
2017-10-21T13:59:13.623Z,63.90
2017-10-21T14:01:39.866Z,63.90
2017-10-21T14:04:06.421Z,63.87
2017-10-21T14:06:32.679Z,63.83
2017-10-21T14:08:58.976Z,63.85
2017-10-21T14:11:25.311Z,63.85
2017-10-21T14:13:51.606Z,63.91
2017-10-21T14:16:17.867Z,63.92
2017-10-21T14:18:44.304Z,63.96
2017-10-21T14:21:10.582Z,64.01
2017-10-21T14:23:36.827Z,64.07
2017-10-21T14:26:03.198Z,64.11
2017-10-21T14:28:29.429Z,64.16
2017-10-21T14:30:55.733Z,64.22
2017-10-21T14:33:22.007Z,64.23
2017-10-21T14:35:48.629Z,64.23
2017-10-21T14:38:14.860Z,64.26
2017-10-21T14:40:41.395Z,64.30
2017-10-21T14:43:07.893Z,64.32
2017-10-21T14:45:34.142Z,64.32
2017-10-21T14:48:00.386Z,64.33
2017-10-21T14:50:26.676Z,64.35
2017-10-21T14:52:52.900Z,64.42
2017-10-21T14:55:19.185Z,64.44
2017-10-21T14:57:45.629Z,64.44
2017-10-21T15:00:12.142Z,64.46
2017-10-21T15:02:38.416Z,64.51
2017-10-21T15:05:04.708Z,64.53
2017-10-21T15:07:30.988Z,64.57
2017-10-21T15:09:57.207Z,64.59
2017-10-21T15:12:23.946Z,64.60
2017-10-21T15:14:50.213Z,64.61
2017-10-21T15:17:16.460Z,64.61
2017-10-21T15:19:42.828Z,64.63
2017-10-21T15:22:09.070Z,64.64
2017-10-21T15:24:35.647Z,64.69
2017-10-21T15:27:02.058Z,64.70
2017-10-21T15:29:28.340Z,64.68
2017-10-21T15:31:54.589Z,64.69
2017-10-21T15:34:21.206Z,64.71
2017-10-21T15:36:47.471Z,64.73
2017-10-21T15:39:13.731Z,64.79
2017-10-21T15:41:40.235Z,64.79
2017-10-21T15:44:06.504Z,64.79
2017-10-21T15:46:32.735Z,64.77
2017-10-21T15:48:59.315Z,64.79
2017-10-21T15:51:25.588Z,64.80
2017-10-21T15:53:52.132Z,64.83
2017-10-21T15:56:18.457Z,64.86
2017-10-21T15:58:44.713Z,64.83
2017-10-21T16:01:10.972Z,64.83
2017-10-21T16:03:37.283Z,64.83
2017-10-21T16:06:03.542Z,64.82
2017-10-21T16:08:29.818Z,64.83
2017-10-21T16:10:56.305Z,64.86
2017-10-21T16:13:22.563Z,64.86
2017-10-21T16:15:48.810Z,64.87
2017-10-21T16:18:15.104Z,64.88
2017-10-21T16:20:41.315Z,64.91
2017-10-21T16:23:07.894Z,64.88
2017-10-21T16:25:34.258Z,64.89
2017-10-21T16:28:00.757Z,64.87
2017-10-21T16:30:27.000Z,64.87
2017-10-21T16:32:53.304Z,64.95
2017-10-21T16:35:19.551Z,64.96
2017-10-21T16:37:45.997Z,64.95
2017-10-21T16:40:12.670Z,64.93
2017-10-21T16:42:38.928Z,64.94
2017-10-21T16:45:05.181Z,64.92
2017-10-21T16:47:31.541Z,64.92
2017-10-21T16:49:57.779Z,64.94
2017-10-21T16:52:24.371Z,64.91
2017-10-21T16:54:50.873Z,64.94
2017-10-21T16:57:17.106Z,64.94
2017-10-21T16:59:43.343Z,64.94
2017-10-21T17:02:09.713Z,64.93
2017-10-21T17:04:36.232Z,64.94
2017-10-21T17:07:02.478Z,64.95
2017-10-21T17:09:29.049Z,64.94
2017-10-21T17:11:55.360Z,64.94
2017-10-21T17:14:21.635Z,64.92
2017-10-21T17:16:48.351Z,64.90
2017-10-21T17:19:14.611Z,64.94
2017-10-21T17:21:40.872Z,64.93
2017-10-21T17:24:07.173Z,64.95
2017-10-21T17:26:33.435Z,64.94
2017-10-21T17:28:59.667Z,64.93
2017-10-21T17:31:25.959Z,64.94
2017-10-21T17:33:52.232Z,64.94
2017-10-21T17:36:18.730Z,64.94
2017-10-21T17:38:46.036Z,64.92
2017-10-21T17:41:12.275Z,64.91
2017-10-21T17:43:38.542Z,64.94
2017-10-21T17:46:05.280Z,64.95
2017-10-21T17:48:31.512Z,64.94
2017-10-21T17:50:57.809Z,64.96
2017-10-21T17:53:24.246Z,64.89
2017-10-21T17:55:50.464Z,64.89
2017-10-21T17:58:16.712Z,64.92
2017-10-21T18:00:43.431Z,64.91
2017-10-21T18:03:09.692Z,64.91
2017-10-21T18:05:35.920Z,64.89
2017-10-21T18:08:02.224Z,64.91
2017-10-21T18:10:28.478Z,64.91
2017-10-21T18:12:54.727Z,64.88
2017-10-21T18:15:21.107Z,64.90
2017-10-21T18:17:47.353Z,64.92
2017-10-21T18:20:13.569Z,64.90
2017-10-21T18:22:40.245Z,64.88
2017-10-21T18:25:06.503Z,64.88
2017-10-21T18:27:32.745Z,64.88
2017-10-21T18:29:59.135Z,64.88
2017-10-21T18:32:25.357Z,64.89
2017-10-21T18:34:51.601Z,64.90
2017-10-21T18:37:17.908Z,64.87
2017-10-21T18:39:44.162Z,64.88
2017-10-21T18:42:10.418Z,64.93
2017-10-21T18:44:37.074Z,64.93
2017-10-21T18:47:03.340Z,64.91
2017-10-21T18:49:29.591Z,64.91
2017-10-21T18:51:55.975Z,64.88
2017-10-21T18:54:22.254Z,64.89
2017-10-21T18:56:48.497Z,64.95
2017-10-21T18:59:14.776Z,64.94
2017-10-21T19:01:40.995Z,64.93
2017-10-21T19:04:07.222Z,64.92
2017-10-21T19:06:33.602Z,64.91
2017-10-21T19:08:59.853Z,64.90
2017-10-21T19:11:26.440Z,64.87
2017-10-21T19:13:52.758Z,64.85
2017-10-21T19:16:19.001Z,64.87
2017-10-21T19:18:45.237Z,64.90
2017-10-21T19:21:11.520Z,64.91
2017-10-21T19:23:37.778Z,64.93
2017-10-21T19:26:04.030Z,64.91
2017-10-21T19:28:30.423Z,64.96
2017-10-21T19:30:56.669Z,64.97
2017-10-21T19:33:22.967Z,64.96
2017-10-21T19:35:49.942Z,64.91
2017-10-21T19:38:16.202Z,64.93
2017-10-21T19:40:42.485Z,64.96
2017-10-21T19:43:08.881Z,64.96
2017-10-21T19:45:35.151Z,64.99
2017-10-21T19:48:01.384Z,64.97
2017-10-21T19:50:27.740Z,64.96
2017-10-21T19:52:54.367Z,64.98
2017-10-21T19:55:20.898Z,65.00
2017-10-21T19:57:47.205Z,64.99
2017-10-21T20:00:13.431Z,64.95
2017-10-21T20:02:39.729Z,64.95
2017-10-21T20:05:05.998Z,64.98
2017-10-21T20:07:32.268Z,64.98
2017-10-21T20:09:58.987Z,65.00
2017-10-21T20:12:25.218Z,64.99
2017-10-21T20:14:51.446Z,64.99
2017-10-21T20:17:18.033Z,65.01
2017-10-21T20:19:44.280Z,65.03
2017-10-21T20:22:10.519Z,65.04
2017-10-21T20:24:38.259Z,65.07
2017-10-21T20:27:04.497Z,65.06
2017-10-21T20:29:30.742Z,65.07
2017-10-21T20:31:57.157Z,65.10
2017-10-21T20:34:23.732Z,65.09
2017-10-21T20:36:56.071Z,65.12
2017-10-21T20:39:22.456Z,65.17
2017-10-21T20:41:49.078Z,65.17
2017-10-21T20:44:15.326Z,65.20
2017-10-21T20:46:41.657Z,65.20
2017-10-21T20:49:07.927Z,65.22
2017-10-21T20:51:34.179Z,65.20
2017-10-21T20:54:00.494Z,65.18
2017-10-21T20:56:26.736Z,65.23
2017-10-21T20:58:53.403Z,65.23
2017-10-21T21:01:19.654Z,65.22
2017-10-21T21:03:45.958Z,65.23
2017-10-21T21:06:12.646Z,65.21
2017-10-21T21:08:38.887Z,65.24
2017-10-21T21:11:05.224Z,65.22
2017-10-21T21:13:31.617Z,65.19
2017-10-21T21:15:57.862Z,65.26
2017-10-21T21:18:24.108Z,65.28
2017-10-21T21:20:50.464Z,65.31
2017-10-21T21:23:16.685Z,65.26
2017-10-21T21:25:42.946Z,65.22
2017-10-21T21:28:09.707Z,65.25
2017-10-21T21:30:35.989Z,65.29
2017-10-21T21:33:02.222Z,65.30
2017-10-21T21:35:29.012Z,65.26
2017-10-21T21:37:55.262Z,65.31
2017-10-21T21:40:21.587Z,65.31
2017-10-21T21:42:47.884Z,65.31
2017-10-21T21:45:14.378Z,65.29
2017-10-21T21:47:40.921Z,65.25
2017-10-21T21:50:07.283Z,65.32
2017-10-21T21:52:33.550Z,65.34
2017-10-21T21:54:59.761Z,65.32
2017-10-21T21:57:25.999Z,65.33
2017-10-21T21:59:52.172Z,65.33
2017-10-21T22:02:18.365Z,65.35
2017-10-21T22:04:51.770Z,65.35
2017-10-21T22:07:17.974Z,65.36
2017-10-21T22:09:44.159Z,65.37
2017-10-21T22:12:10.494Z,65.40
2017-10-21T22:14:36.695Z,65.40
2017-10-21T22:17:02.879Z,65.38
2017-10-21T22:19:29.189Z,65.41
2017-10-21T22:21:55.385Z,65.41
2017-10-21T22:24:21.909Z,65.40
2017-10-21T22:26:48.489Z,65.42
2017-10-21T22:29:14.674Z,65.46
2017-10-21T22:31:41.104Z,65.43
2017-10-21T22:34:07.336Z,65.48
2017-10-21T22:36:33.597Z,65.50
2017-10-21T22:38:59.798Z,65.51
2017-10-21T22:41:26.031Z,65.50
2017-10-21T22:43:52.294Z,65.58
2017-10-21T22:46:18.781Z,65.49
2017-10-21T22:48:45.127Z,65.45
2017-10-21T22:51:11.317Z,65.49
2017-10-21T22:53:37.499Z,65.54
2017-10-21T22:56:03.744Z,65.48
2017-10-21T22:58:29.924Z,65.49
2017-10-21T23:00:56.101Z,65.50
2017-10-21T23:03:22.334Z,65.47
2017-10-21T23:05:48.771Z,65.48
2017-10-21T23:08:15.246Z,65.46
2017-10-21T23:10:41.612Z,65.46
2017-10-21T23:13:07.806Z,65.46
2017-10-21T23:15:33.973Z,65.47
2017-10-21T23:18:00.232Z,65.50
2017-10-21T23:20:26.423Z,65.51
2017-10-21T23:22:52.613Z,65.52
2017-10-21T23:25:18.862Z,65.56
2017-10-21T23:27:45.060Z,65.56
2017-10-21T23:30:11.505Z,65.54
2017-10-21T23:32:38.191Z,65.54
2017-10-21T23:35:04.446Z,65.54
2017-10-21T23:37:30.901Z,65.54
2017-10-21T23:39:57.232Z,65.53
2017-10-21T23:42:23.421Z,65.56
2017-10-21T23:44:49.638Z,65.58
2017-10-21T23:47:16.546Z,65.59
2017-10-21T23:49:42.838Z,65.63
2017-10-21T23:52:09.298Z,65.59
2017-10-21T23:54:35.698Z,65.63
2017-10-21T23:57:01.883Z,65.63
2017-10-21T23:59:28.065Z,65.59
